sensor_id;sensor_type;location;lat;lon;timestamp;pressure;altitude;pressure_sealevel;temperature;humidity
80393;BME280;69719;45.544;10.218;2024-03-23T00:55:50;99882.00;;;13.18;100.00
80393;BME280;69719;45.544;10.218;2024-03-23T00:58:15;99872.50;;;13.11;100.00
80393;BME280;69719;45.544;10.218;2024-03-23T01:00:41;99879.31;;;13.12;100.00
80393;BME280;69719;45.544;10.218;2024-03-23T01:03:06;99863.72;;;13.18;100.00
80393;BME280;69719;45.544;10.218;2024-03-23T01:05:32;99866.47;;;13.11;100.00
80393;BME280;69719;45.544;10.218;2024-03-23T01:07:57;99869.19;;;13.04;100.00
80393;BME280;69719;45.544;10.218;2024-03-23T01:10:22;99865.00;;;13.03;100.00
80393;BME280;69719;45.544;10.218;2024-03-23T01:12:48;99868.19;;;13.05;100.00
80393;BME280;69719;45.544;10.218;2024-03-23T01:15:13;99856.03;;;12.88;100.00
80393;BME280;69719;45.544;10.218;2024-03-23T01:17:39;99859.56;;;12.70;100.00
80393;BME280;69719;45.544;10.218;2024-03-23T01:20:04;99860.59;;;12.81;100.00
80393;BME280;69719;45.544;10.218;2024-03-23T01:22:31;99860.16;;;12.72;100.00
80393;BME280;69719;45.544;10.218;2024-03-23T01:24:57;99858.13;;;12.74;100.00
80393;BME280;69719;45.544;10.218;2024-03-23T01:27:22;99854.81;;;12.67;100.00
80393;BME280;69719;45.544;10.218;2024-03-23T01:29:48;99857.88;;;12.64;100.00
80393;BME280;69719;45.544;10.218;2024-03-23T01:32:13;99854.59;;;12.57;100.00
80393;BME280;69719;45.544;10.218;2024-03-23T01:34:39;99858.34;;;12.61;100.00
80393;BME280;69719;45.544;10.218;2024-03-23T01:37:04;99851.84;;;12.75;100.00
80393;BME280;69719;45.544;10.218;2024-03-23T01:39:30;99849.13;;;12.70;100.00
80393;BME280;69719;45.544;10.218;2024-03-23T01:41:55;99851.97;;;12.80;100.00
80393;BME280;69719;45.544;10.218;2024-03-23T01:44:21;99845.88;;;12.63;100.00
80393;BME280;69719;45.544;10.218;2024-03-23T01:46:46;99845.63;;;12.76;100.00
80393;BME280;69719;45.544;10.218;2024-03-23T01:49:12;99848.25;;;12.76;100.00
80393;BME280;69719;45.544;10.218;2024-03-23T01:51:38;99846.19;;;12.78;100.00
80393;BME280;69719;45.544;10.218;2024-03-23T01:54:05;99843.22;;;12.86;100.00
80393;BME280;69719;45.544;10.218;2024-03-23T01:56:33;99851.06;;;12.86;100.00
80393;BME280;69719;45.544;10.218;2024-03-23T01:59:02;99845.84;;;12.75;100.00
80393;BME280;69719;45.544;10.218;2024-03-23T02:01:28;99829.84;;;12.60;100.00
80393;BME280;69719;45.544;10.218;2024-03-23T02:03:53;99833.63;;;12.64;100.00
80393;BME280;69719;45.544;10.218;2024-03-23T02:06:19;99826.47;;;12.59;100.00
80393;BME280;69719;45.544;10.218;2024-03-23T02:08:44;99825.75;;;12.75;100.00
80393;BME280;69719;45.544;10.218;2024-03-23T02:11:10;99823.13;;;12.75;100.00
80393;BME280;69719;45.544;10.218;2024-03-23T02:13:35;99826.44;;;12.82;100.00
80393;BME280;69719;45.544;10.218;2024-03-23T02:16:01;99819.69;;;12.98;100.00
80393;BME280;69719;45.544;10.218;2024-03-23T02:18:26;99811.38;;;13.01;100.00
80393;BME280;69719;45.544;10.218;2024-03-23T02:20:52;99806.66;;;12.86;100.00
80393;BME280;69719;45.544;10.218;2024-03-23T02:23:17;99808.59;;;12.91;100.00
80393;BME280;69719;45.544;10.218;2024-03-23T02:25:43;99804.88;;;12.75;100.00
80393;BME280;69719;45.544;10.218;2024-03-23T02:28:09;99803.13;;;12.92;100.00
80393;BME280;69719;45.544;10.218;2024-03-23T02:30:35;99805.72;;;12.92;100.00
80393;BME280;69719;45.544;10.218;2024-03-23T02:33:00;99803.44;;;12.96;100.00
80393;BME280;69719;45.544;10.218;2024-03-23T02:35:26;99796.41;;;12.96;100.00
80393;BME280;69719;45.544;10.218;2024-03-23T02:37:51;99791.44;;;12.83;100.00
80393;BME280;69719;45.544;10.218;2024-03-23T02:40:18;99795.91;;;12.60;100.00
80393;BME280;69719;45.544;10.218;2024-03-23T02:42:43;99788.34;;;12.47;100.00
80393;BME280;69719;45.544;10.218;2024-03-23T02:45:09;99784.91;;;12.69;100.00
80393;BME280;69719;45.544;10.218;2024-03-23T02:47:34;99783.97;;;12.75;100.00
80393;BME280;69719;45.544;10.218;2024-03-23T02:50:00;99778.69;;;12.47;100.00
80393;BME280;69719;45.544;10.218;2024-03-23T02:52:25;99781.09;;;12.49;100.00
80393;BME280;69719;45.544;10.218;2024-03-23T02:54:51;99771.91;;;12.46;100.00
80393;BME280;69719;45.544;10.218;2024-03-23T02:57:16;99766.69;;;12.46;100.00
80393;BME280;69719;45.544;10.218;2024-03-23T02:59:41;99763.03;;;12.47;100.00
80393;BME280;69719;45.544;10.218;2024-03-23T03:02:07;99768.69;;;12.56;100.00
80393;BME280;69719;45.544;10.218;2024-03-23T03:04:32;99756.56;;;12.61;100.00
80393;BME280;69719;45.544;10.218;2024-03-23T03:06:58;99749.72;;;12.72;100.00
80393;BME280;69719;45.544;10.218;2024-03-23T03:09:23;99744.25;;;12.73;100.00
80393;BME280;69719;45.544;10.218;2024-03-23T03:11:49;99747.91;;;12.72;100.00
80393;BME280;69719;45.544;10.218;2024-03-23T03:14:14;99739.50;;;12.70;100.00
80393;BME280;69719;45.544;10.218;2024-03-23T03:16:40;99737.91;;;12.29;100.00
80393;BME280;69719;45.544;10.218;2024-03-23T03:19:05;99737.22;;;12.22;100.00
80393;BME280;69719;45.544;10.218;2024-03-23T03:21:31;99738.47;;;12.20;100.00
80393;BME280;69719;45.544;10.218;2024-03-23T03:23:57;99733.41;;;12.53;100.00
80393;BME280;69719;45.544;10.218;2024-03-23T03:26:23;99736.25;;;12.52;100.00
80393;BME280;69719;45.544;10.218;2024-03-23T03:28:50;99741.16;;;12.48;100.00
80393;BME280;69719;45.544;10.218;2024-03-23T03:31:16;99735.94;;;12.48;100.00
80393;BME280;69719;45.544;10.218;2024-03-23T03:33:42;99741.22;;;12.53;100.00
80393;BME280;69719;45.544;10.218;2024-03-23T03:36:07;99734.06;;;12.60;100.00
80393;BME280;69719;45.544;10.218;2024-03-23T03:38:32;99734.88;;;12.61;100.00
80393;BME280;69719;45.544;10.218;2024-03-23T03:41:00;99728.53;;;12.57;100.00
80393;BME280;69719;45.544;10.218;2024-03-23T03:43:26;99735.00;;;12.54;100.00
80393;BME280;69719;45.544;10.218;2024-03-23T03:45:53;99734.00;;;12.44;100.00
80393;BME280;69719;45.544;10.218;2024-03-23T03:48:18;99734.69;;;12.39;100.00
80393;BME280;69719;45.544;10.218;2024-03-23T03:50:44;99727.31;;;12.36;100.00
80393;BME280;69719;45.544;10.218;2024-03-23T03:53:09;99735.50;;;12.28;100.00
80393;BME280;69719;45.544;10.218;2024-03-23T03:55:34;99728.09;;;12.48;100.00
80393;BME280;69719;45.544;10.218;2024-03-23T03:58:00;99725.00;;;12.51;100.00
80393;BME280;69719;45.544;10.218;2024-03-23T04:00:25;99728.09;;;12.48;100.00
80393;BME280;69719;45.544;10.218;2024-03-23T04:02:50;99721.06;;;12.49;100.00
80393;BME280;69719;45.544;10.218;2024-03-23T04:05:16;99726.19;;;12.44;100.00
80393;BME280;69719;45.544;10.218;2024-03-23T04:07:42;99722.41;;;12.51;100.00
80393;BME280;69719;45.544;10.218;2024-03-23T04:10:08;99716.97;;;12.53;100.00
80393;BME280;69719;45.544;10.218;2024-03-23T04:12:34;99720.03;;;12.61;100.00
80393;BME280;69719;45.544;10.218;2024-03-23T04:15:00;99722.13;;;12.76;100.00
80393;BME280;69719;45.544;10.218;2024-03-23T04:17:26;99727.22;;;12.82;100.00
80393;BME280;69719;45.544;10.218;2024-03-23T04:19:56;99720.53;;;12.75;100.00
80393;BME280;69719;45.544;10.218;2024-03-23T04:22:22;99718.81;;;12.80;100.00
80393;BME280;69719;45.544;10.218;2024-03-23T04:24:49;99712.94;;;12.73;100.00
80393;BME280;69719;45.544;10.218;2024-03-23T04:27:14;99707.22;;;12.48;100.00
80393;BME280;69719;45.544;10.218;2024-03-23T04:29:40;99706.84;;;12.56;100.00
80393;BME280;69719;45.544;10.218;2024-03-23T04:32:05;99702.56;;;12.50;100.00
80393;BME280;69719;45.544;10.218;2024-03-23T04:34:31;99699.84;;;12.45;100.00
80393;BME280;69719;45.544;10.218;2024-03-23T04:36:58;99689.88;;;12.42;100.00
80393;BME280;69719;45.544;10.218;2024-03-23T04:39:24;99696.72;;;12.31;100.00
80393;BME280;69719;45.544;10.218;2024-03-23T04:41:49;99691.06;;;12.23;100.00
80393;BME280;69719;45.544;10.218;2024-03-23T04:44:15;99690.69;;;12.31;100.00
80393;BME280;69719;45.544;10.218;2024-03-23T04:46:40;99685.69;;;12.41;100.00
80393;BME280;69719;45.544;10.218;2024-03-23T04:49:06;99688.06;;;12.43;100.00
80393;BME280;69719;45.544;10.218;2024-03-23T04:51:36;99692.63;;;12.24;100.00
80393;BME280;69719;45.544;10.218;2024-03-23T04:54:05;99690.03;;;12.24;100.00
80393;BME280;69719;45.544;10.218;2024-03-23T04:56:31;99685.94;;;12.28;100.00
80393;BME280;69719;45.544;10.218;2024-03-23T04:58:57;99685.56;;;12.36;100.00
80393;BME280;69719;45.544;10.218;2024-03-23T05:01:27;99683.44;;;12.21;100.00
80393;BME280;69719;45.544;10.218;2024-03-23T05:03:52;99679.44;;;12.42;100.00
80393;BME280;69719;45.544;10.218;2024-03-23T05:06:18;99681.06;;;12.31;100.00
80393;BME280;69719;45.544;10.218;2024-03-23T05:08:44;99681.25;;;12.42;100.00
80393;BME280;69719;45.544;10.218;2024-03-23T05:11:10;99677.22;;;12.22;100.00
80393;BME280;69719;45.544;10.218;2024-03-23T05:13:35;99673.28;;;11.97;100.00
80393;BME280;69719;45.544;10.218;2024-03-23T05:16:01;99681.34;;;11.95;100.00
80393;BME280;69719;45.544;10.218;2024-03-23T05:18:26;99677.09;;;12.17;100.00
80393;BME280;69719;45.544;10.218;2024-03-23T05:20:57;99677.38;;;11.93;100.00
80393;BME280;69719;45.544;10.218;2024-03-23T05:23:23;99671.13;;;11.94;100.00
80393;BME280;69719;45.544;10.218;2024-03-23T05:25:48;99675.19;;;12.13;100.00
80393;BME280;69719;45.544;10.218;2024-03-23T05:28:14;99674.28;;;11.96;100.00
80393;BME280;69719;45.544;10.218;2024-03-23T05:30:39;99668.31;;;11.84;100.00
80393;BME280;69719;45.544;10.218;2024-03-23T05:33:05;99671.94;;;11.71;100.00
80393;BME280;69719;45.544;10.218;2024-03-23T05:35:31;99668.97;;;11.68;100.00
80393;BME280;69719;45.544;10.218;2024-03-23T05:37:57;99667.94;;;11.92;100.00
80393;BME280;69719;45.544;10.218;2024-03-23T05:40:24;99664.91;;;11.95;100.00
80393;BME280;69719;45.544;10.218;2024-03-23T05:42:50;99663.31;;;11.82;100.00
80393;BME280;69719;45.544;10.218;2024-03-23T05:45:18;99666.59;;;11.89;100.00
80393;BME280;69719;45.544;10.218;2024-03-23T05:47:44;99667.84;;;11.75;100.00
80393;BME280;69719;45.544;10.218;2024-03-23T05:50:10;99666.81;;;11.88;100.00
80393;BME280;69719;45.544;10.218;2024-03-23T05:52:38;99671.47;;;11.97;100.00
80393;BME280;69719;45.544;10.218;2024-03-23T05:55:04;99673.63;;;11.89;100.00
80393;BME280;69719;45.544;10.218;2024-03-23T05:57:30;99664.44;;;12.09;100.00
80393;BME280;69719;45.544;10.218;2024-03-23T05:59:55;99667.03;;;12.09;100.00
80393;BME280;69719;45.544;10.218;2024-03-23T06:02:21;99669.41;;;12.22;100.00
80393;BME280;69719;45.544;10.218;2024-03-23T06:04:46;99674.00;;;12.32;100.00
80393;BME280;69719;45.544;10.218;2024-03-23T06:07:11;99667.47;;;12.29;100.00
80393;BME280;69719;45.544;10.218;2024-03-23T06:09:40;99666.47;;;12.47;100.00
80393;BME280;69719;45.544;10.218;2024-03-23T06:12:05;99670.22;;;12.51;100.00
80393;BME280;69719;45.544;10.218;2024-03-23T06:14:31;99664.78;;;12.53;100.00
80393;BME280;69719;45.544;10.218;2024-03-23T06:16:57;99657.88;;;12.75;100.00
80393;BME280;69719;45.544;10.218;2024-03-23T06:19:23;99654.75;;;12.89;100.00
80393;BME280;69719;45.544;10.218;2024-03-23T06:21:48;99648.00;;;13.05;100.00
80393;BME280;69719;45.544;10.218;2024-03-23T06:24:14;99655.53;;;12.90;100.00
80393;BME280;69719;45.544;10.218;2024-03-23T06:26:39;99650.06;;;13.20;100.00
80393;BME280;69719;45.544;10.218;2024-03-23T06:29:04;99643.13;;;13.25;100.00
80393;BME280;69719;45.544;10.218;2024-03-23T06:31:30;99638.84;;;13.36;100.00
80393;BME280;69719;45.544;10.218;2024-03-23T06:33:56;99642.78;;;13.22;100.00
80393;BME280;69719;45.544;10.218;2024-03-23T06:36:21;99634.00;;;13.28;100.00
80393;BME280;69719;45.544;10.218;2024-03-23T06:38:47;99627.09;;;13.22;100.00
80393;BME280;69719;45.544;10.218;2024-03-23T06:41:12;99618.41;;;13.33;100.00
80393;BME280;69719;45.544;10.218;2024-03-23T06:43:38;99622.75;;;13.44;100.00
80393;BME280;69719;45.544;10.218;2024-03-23T06:46:03;99626.72;;;13.46;100.00
80393;BME280;69719;45.544;10.218;2024-03-23T06:48:30;99624.25;;;13.56;100.00
80393;BME280;69719;45.544;10.218;2024-03-23T06:50:56;99630.81;;;13.59;100.00
80393;BME280;69719;45.544;10.218;2024-03-23T06:53:22;99622.66;;;13.55;100.00
80393;BME280;69719;45.544;10.218;2024-03-23T06:55:52;99623.59;;;13.66;100.00
80393;BME280;69719;45.544;10.218;2024-03-23T06:58:22;99625.13;;;13.62;100.00
80393;BME280;69719;45.544;10.218;2024-03-23T07:00:47;99621.88;;;13.55;100.00
80393;BME280;69719;45.544;10.218;2024-03-23T07:03:13;99618.59;;;13.64;100.00
80393;BME280;69719;45.544;10.218;2024-03-23T07:05:39;99617.00;;;13.80;100.00
80393;BME280;69719;45.544;10.218;2024-03-23T07:08:05;99624.84;;;13.80;100.00
80393;BME280;69719;45.544;10.218;2024-03-23T07:10:30;99615.66;;;13.99;100.00
80393;BME280;69719;45.544;10.218;2024-03-23T07:12:56;99612.47;;;13.92;100.00
80393;BME280;69719;45.544;10.218;2024-03-23T07:15:21;99614.31;;;13.97;100.00
80393;BME280;69719;45.544;10.218;2024-03-23T07:17:47;99597.88;;;13.96;100.00
80393;BME280;69719;45.544;10.218;2024-03-23T07:20:13;99607.47;;;14.12;100.00
80393;BME280;69719;45.544;10.218;2024-03-23T07:22:38;99600.16;;;14.14;100.00
80393;BME280;69719;45.544;10.218;2024-03-23T07:25:05;99593.84;;;14.10;100.00
80393;BME280;69719;45.544;10.218;2024-03-23T07:27:31;99598.66;;;14.40;100.00
80393;BME280;69719;45.544;10.218;2024-03-23T07:29:57;99591.94;;;14.49;100.00
80393;BME280;69719;45.544;10.218;2024-03-23T07:32:22;99594.66;;;14.59;100.00
80393;BME280;69719;45.544;10.218;2024-03-23T07:34:48;99592.09;;;14.64;100.00
80393;BME280;69719;45.544;10.218;2024-03-23T07:37:14;99584.97;;;14.59;100.00
80393;BME280;69719;45.544;10.218;2024-03-23T07:39:40;99586.09;;;14.42;100.00
80393;BME280;69719;45.544;10.218;2024-03-23T07:42:06;99580.41;;;14.50;100.00
80393;BME280;69719;45.544;10.218;2024-03-23T07:44:31;99586.19;;;14.79;100.00
80393;BME280;69719;45.544;10.218;2024-03-23T07:46:57;99582.09;;;14.88;100.00
80393;BME280;69719;45.544;10.218;2024-03-23T07:49:22;99576.84;;;14.88;100.00
80393;BME280;69719;45.544;10.218;2024-03-23T07:51:47;99580.06;;;14.95;100.00
80393;BME280;69719;45.544;10.218;2024-03-23T07:54:13;99580.13;;;15.05;100.00
80393;BME280;69719;45.544;10.218;2024-03-23T07:56:38;99585.44;;;15.15;100.00
80393;BME280;69719;45.544;10.218;2024-03-23T07:59:03;99583.72;;;15.30;100.00
80393;BME280;69719;45.544;10.218;2024-03-23T08:01:29;99577.16;;;15.28;100.00
80393;BME280;69719;45.544;10.218;2024-03-23T08:03:55;99575.50;;;15.17;100.00
80393;BME280;69719;45.544;10.218;2024-03-23T08:06:21;99573.56;;;15.39;100.00
80393;BME280;69719;45.544;10.218;2024-03-23T08:08:48;99559.41;;;15.40;100.00
80393;BME280;69719;45.544;10.218;2024-03-23T08:11:14;99558.44;;;15.46;100.00
80393;BME280;69719;45.544;10.218;2024-03-23T08:13:41;99565.69;;;15.39;100.00
80393;BME280;69719;45.544;10.218;2024-03-23T08:16:08;99559.94;;;15.42;100.00
80393;BME280;69719;45.544;10.218;2024-03-23T08:18:34;99557.13;;;15.49;100.00
80393;BME280;69719;45.544;10.218;2024-03-23T08:21:00;99551.16;;;15.58;100.00
80393;BME280;69719;45.544;10.218;2024-03-23T08:23:27;99545.41;;;15.66;100.00
80393;BME280;69719;45.544;10.218;2024-03-23T08:25:57;99557.50;;;15.67;100.00
80393;BME280;69719;45.544;10.218;2024-03-23T08:28:23;99554.69;;;15.89;100.00
80393;BME280;69719;45.544;10.218;2024-03-23T08:30:49;99560.00;;;15.99;100.00
80393;BME280;69719;45.544;10.218;2024-03-23T08:33:15;99559.22;;;16.08;100.00
80393;BME280;69719;45.544;10.218;2024-03-23T08:35:41;99562.44;;;16.20;100.00
80393;BME280;69719;45.544;10.218;2024-03-23T08:38:06;99556.97;;;16.42;100.00
80393;BME280;69719;45.544;10.218;2024-03-23T08:40:32;99556.50;;;16.65;100.00
80393;BME280;69719;45.544;10.218;2024-03-23T08:42:57;99558.31;;;16.75;100.00
80393;BME280;69719;45.544;10.218;2024-03-23T08:45:24;99549.66;;;16.69;100.00
80393;BME280;69719;45.544;10.218;2024-03-23T08:47:49;99552.31;;;17.00;100.00
80393;BME280;69719;45.544;10.218;2024-03-23T08:50:15;99555.44;;;17.17;100.00
80393;BME280;69719;45.544;10.218;2024-03-23T08:52:40;99556.47;;;17.31;100.00
80393;BME280;69719;45.544;10.218;2024-03-23T08:55:06;99547.50;;;17.62;100.00
80393;BME280;69719;45.544;10.218;2024-03-23T08:57:32;99546.66;;;17.71;100.00
80393;BME280;69719;45.544;10.218;2024-03-23T08:59:57;99537.72;;;17.67;100.00
80393;BME280;69719;45.544;10.218;2024-03-23T09:02:23;99532.97;;;17.64;100.00
80393;BME280;69719;45.544;10.218;2024-03-23T09:04:48;99534.06;;;17.63;98.65
80393;BME280;69719;45.544;10.218;2024-03-23T09:07:15;99535.66;;;17.54;99.53
80393;BME280;69719;45.544;10.218;2024-03-23T09:09:41;99533.03;;;17.39;98.62
80393;BME280;69719;45.544;10.218;2024-03-23T09:12:06;99535.94;;;17.38;98.77
80393;BME280;69719;45.544;10.218;2024-03-23T09:14:33;99520.69;;;17.50;98.38
80393;BME280;69719;45.544;10.218;2024-03-23T09:16:59;99528.28;;;17.56;98.77
80393;BME280;69719;45.544;10.218;2024-03-23T09:19:28;99525.09;;;17.69;98.50
80393;BME280;69719;45.544;10.218;2024-03-23T09:21:53;99525.59;;;17.71;99.78
80393;BME280;69719;45.544;10.218;2024-03-23T09:24:19;99524.50;;;17.78;99.68
80393;BME280;69719;45.544;10.218;2024-03-23T09:26:44;99524.56;;;17.73;100.00
80393;BME280;69719;45.544;10.218;2024-03-23T09:29:10;99516.56;;;17.93;100.00
80393;BME280;69719;45.544;10.218;2024-03-23T09:31:35;99510.78;;;17.91;100.00
80393;BME280;69719;45.544;10.218;2024-03-23T09:34:01;99503.13;;;17.94;100.00
80393;BME280;69719;45.544;10.218;2024-03-23T09:36:26;99498.59;;;18.05;100.00
80393;BME280;69719;45.544;10.218;2024-03-23T09:38:52;99484.97;;;17.93;100.00
80393;BME280;69719;45.544;10.218;2024-03-23T09:41:17;99464.91;;;18.07;100.00
80393;BME280;69719;45.544;10.218;2024-03-23T09:43:43;99468.50;;;18.16;100.00
80393;BME280;69719;45.544;10.218;2024-03-23T09:46:08;99458.66;;;17.93;100.00
80393;BME280;69719;45.544;10.218;2024-03-23T09:48:34;99451.75;;;18.02;100.00
80393;BME280;69719;45.544;10.218;2024-03-23T09:51:02;99445.88;;;18.15;100.00
80393;BME280;69719;45.544;10.218;2024-03-23T09:53:27;99455.09;;;18.17;98.18
80393;BME280;69719;45.544;10.218;2024-03-23T09:55:53;99451.66;;;18.17;99.86
80393;BME280;69719;45.544;10.218;2024-03-23T09:58:18;99445.38;;;18.13;100.00
80393;BME280;69719;45.544;10.218;2024-03-23T10:00:44;99434.72;;;18.28;100.00
80393;BME280;69719;45.544;10.218;2024-03-23T10:03:10;99427.25;;;18.40;100.00
80393;BME280;69719;45.544;10.218;2024-03-23T10:05:36;99415.09;;;18.49;100.00
80393;BME280;69719;45.544;10.218;2024-03-23T10:08:18;99424.47;;;18.60;98.75
80393;BME280;69719;45.544;10.218;2024-03-23T10:10:45;99421.88;;;18.55;97.45
80393;BME280;69719;45.544;10.218;2024-03-23T10:13:11;99414.50;;;18.52;100.00
80393;BME280;69719;45.544;10.218;2024-03-23T10:15:54;99415.97;;;18.92;99.90
80393;BME280;69719;45.544;10.218;2024-03-23T10:18:20;99408.56;;;19.17;97.10
80393;BME280;69719;45.544;10.218;2024-03-23T10:23:31;99417.25;;;18.71;100.00
80393;BME280;69719;45.544;10.218;2024-03-23T10:29:11;99389.22;;;18.56;100.00
80393;BME280;69719;45.544;10.218;2024-03-23T10:31:37;99386.53;;;18.85;100.00
80393;BME280;69719;45.544;10.218;2024-03-23T10:34:06;99375.66;;;18.91;100.00
80393;BME280;69719;45.544;10.218;2024-03-23T10:36:34;99378.22;;;18.96;100.00
80393;BME280;69719;45.544;10.218;2024-03-23T10:39:00;99387.16;;;18.48;100.00
80393;BME280;69719;45.544;10.218;2024-03-23T10:41:29;99379.75;;;18.50;100.00
80393;BME280;69719;45.544;10.218;2024-03-23T10:43:57;99381.22;;;18.61;100.00
80393;BME280;69719;45.544;10.218;2024-03-23T10:46:23;99376.97;;;18.65;100.00
80393;BME280;69719;45.544;10.218;2024-03-23T10:48:49;99376.47;;;18.63;100.00
80393;BME280;69719;45.544;10.218;2024-03-23T10:51:14;99357.03;;;18.83;100.00
80393;BME280;69719;45.544;10.218;2024-03-23T10:53:40;99352.38;;;18.98;100.00
80393;BME280;69719;45.544;10.218;2024-03-23T10:56:06;99345.94;;;18.86;100.00
80393;BME280;69719;45.544;10.218;2024-03-23T10:58:38;99341.78;;;18.56;100.00
80393;BME280;69719;45.544;10.218;2024-03-23T11:01:04;99340.38;;;18.87;100.00
80393;BME280;69719;45.544;10.218;2024-03-23T11:05:59;99320.03;;;19.11;100.00
80393;BME280;69719;45.544;10.218;2024-03-23T11:11:20;99306.50;;;19.74;100.00
80393;BME280;69719;45.544;10.218;2024-03-23T11:13:51;99307.28;;;20.07;96.24
80393;BME280;69719;45.544;10.218;2024-03-23T11:16:22;99305.22;;;19.71;98.83
80393;BME280;69719;45.544;10.218;2024-03-23T11:18:48;99310.72;;;19.75;98.95
80393;BME280;69719;45.544;10.218;2024-03-23T11:24:16;99292.19;;;19.43;100.00
80393;BME280;69719;45.544;10.218;2024-03-23T11:26:41;99269.31;;;19.38;99.43
80393;BME280;69719;45.544;10.218;2024-03-23T11:29:15;99267.50;;;19.71;93.97
80393;BME280;69719;45.544;10.218;2024-03-23T11:31:50;99279.97;;;19.65;93.68
80393;BME280;69719;45.544;10.218;2024-03-23T11:34:16;99266.88;;;19.74;93.83
80393;BME280;69719;45.544;10.218;2024-03-23T11:36:45;99263.50;;;19.73;95.45
80393;BME280;69719;45.544;10.218;2024-03-23T11:39:18;99269.22;;;19.62;94.70
80393;BME280;69719;45.544;10.218;2024-03-23T11:44:19;99238.41;;;19.01;94.41
80393;BME280;69719;45.544;10.218;2024-03-23T11:46:48;99236.34;;;19.17;95.58
80393;BME280;69719;45.544;10.218;2024-03-23T11:49:25;99232.31;;;19.24;96.24
80393;BME280;69719;45.544;10.218;2024-03-23T11:51:52;99222.25;;;19.27;96.89
80393;BME280;69719;45.544;10.218;2024-03-23T11:54:23;99223.59;;;19.43;94.19
80393;BME280;69719;45.544;10.218;2024-03-23T11:56:59;99218.50;;;19.46;92.40
80393;BME280;69719;45.544;10.218;2024-03-23T11:59:34;99211.59;;;19.32;97.00
80393;BME280;69719;45.544;10.218;2024-03-23T12:02:00;99208.56;;;19.06;97.28
80393;BME280;69719;45.544;10.218;2024-03-23T12:04:29;99205.84;;;19.11;95.75
80393;BME280;69719;45.544;10.218;2024-03-23T12:07:15;99203.88;;;19.03;95.90
80393;BME280;69719;45.544;10.218;2024-03-23T12:09:41;99192.81;;;19.19;94.72
80393;BME280;69719;45.544;10.218;2024-03-23T12:14:46;99186.09;;;19.08;96.01
80393;BME280;69719;45.544;10.218;2024-03-23T12:17:26;99181.63;;;19.09;94.91
80393;BME280;69719;45.544;10.218;2024-03-23T12:19:51;99182.53;;;18.99;91.41
80393;BME280;69719;45.544;10.218;2024-03-23T12:22:20;99173.16;;;18.93;92.71
80393;BME280;69719;45.544;10.218;2024-03-23T12:24:46;99171.13;;;19.04;92.15
80393;BME280;69719;45.544;10.218;2024-03-23T12:27:11;99164.03;;;19.04;94.15
80393;BME280;69719;45.544;10.218;2024-03-23T12:29:37;99161.88;;;19.06;95.06
80393;BME280;69719;45.544;10.218;2024-03-23T12:32:04;99162.94;;;19.05;96.18
80393;BME280;69719;45.544;10.218;2024-03-23T12:34:30;99160.69;;;18.99;98.48
80393;BME280;69719;45.544;10.218;2024-03-23T12:36:56;99158.56;;;19.01;97.62
80393;BME280;69719;45.544;10.218;2024-03-23T12:39:22;99160.41;;;19.00;99.28
80393;BME280;69719;45.544;10.218;2024-03-23T12:41:48;99154.72;;;18.75;100.00
80393;BME280;69719;45.544;10.218;2024-03-23T12:44:13;99155.06;;;18.68;100.00
80393;BME280;69719;45.544;10.218;2024-03-23T12:46:41;99154.72;;;18.75;100.00
80393;BME280;69719;45.544;10.218;2024-03-23T12:49:06;99148.44;;;18.71;100.00
80393;BME280;69719;45.544;10.218;2024-03-23T12:51:32;99151.94;;;18.42;100.00
80393;BME280;69719;45.544;10.218;2024-03-23T12:53:58;99156.31;;;18.52;100.00
80393;BME280;69719;45.544;10.218;2024-03-23T12:56:23;99152.59;;;18.34;100.00
80393;BME280;69719;45.544;10.218;2024-03-23T12:58:49;99144.34;;;18.41;100.00
80393;BME280;69719;45.544;10.218;2024-03-23T13:01:17;99142.19;;;18.43;100.00
80393;BME280;69719;45.544;10.218;2024-03-23T13:03:43;99141.09;;;18.25;100.00
80393;BME280;69719;45.544;10.218;2024-03-23T13:06:10;99141.38;;;18.24;100.00
80393;BME280;69719;45.544;10.218;2024-03-23T13:08:36;99144.44;;;18.31;100.00
80393;BME280;69719;45.544;10.218;2024-03-23T13:11:01;99148.84;;;18.59;100.00
80393;BME280;69719;45.544;10.218;2024-03-23T13:13:26;99146.56;;;18.71;100.00
80393;BME280;69719;45.544;10.218;2024-03-23T13:15:52;99133.09;;;18.54;100.00
80393;BME280;69719;45.544;10.218;2024-03-23T13:18:17;99129.97;;;18.52;100.00
80393;BME280;69719;45.544;10.218;2024-03-23T13:20:43;99132.09;;;18.50;100.00
80393;BME280;69719;45.544;10.218;2024-03-23T13:23:08;99118.88;;;18.74;100.00
80393;BME280;69719;45.544;10.218;2024-03-23T13:25:34;99109.19;;;18.88;100.00
80393;BME280;69719;45.544;10.218;2024-03-23T13:27:59;99093.06;;;18.89;100.00
80393;BME280;69719;45.544;10.218;2024-03-23T13:30:26;99076.75;;;19.19;100.00
80393;BME280;69719;45.544;10.218;2024-03-23T13:32:51;99077.13;;;19.13;100.00
80393;BME280;69719;45.544;10.218;2024-03-23T13:35:17;99063.88;;;18.86;100.00
80393;BME280;69719;45.544;10.218;2024-03-23T13:37:43;99042.41;;;18.92;100.00
80393;BME280;69719;45.544;10.218;2024-03-23T13:40:09;99022.16;;;19.20;100.00
80393;BME280;69719;45.544;10.218;2024-03-23T13:42:35;99033.44;;;19.39;100.00
80393;BME280;69719;45.544;10.218;2024-03-23T13:45:02;99038.09;;;19.29;100.00
80393;BME280;69719;45.544;10.218;2024-03-23T13:47:28;99047.25;;;19.17;100.00
80393;BME280;69719;45.544;10.218;2024-03-23T13:49:53;99050.38;;;19.19;100.00